Time;durP1;ratioP1;P1;durP2;ratioP2;P2;SDS_P1;SDS_P2;PMS_P1;PMS_P2;Temp;Humidity;BMP_temperature;BMP_pressure;BME280_temperature;BME280_humidity;BME280_pressure;Samples;Min_cycle;Max_cycle;Signal;HPM_P1;HPM_P2
2022/05/31 00:00:32;;;;;;;2.75;0.93;;;16.20;87.40;;;;;;5008040;28;20091;-74
2022/05/31 00:02:59;;;;;;;2.05;1.02;;;16.20;87.30;;;;;;5003556;28;20034;-75
2022/05/31 00:05:25;;;;;;;1.98;1.00;;;16.20;87.20;;;;;;5005505;28;20022;-74
2022/05/31 00:07:51;;;;;;;1.95;1.00;;;16.20;87.30;;;;;;5006200;28;20034;-74
2022/05/31 00:10:17;;;;;;;2.63;0.90;;;16.10;87.40;;;;;;4995603;28;20030;-75
2022/05/31 00:12:43;;;;;;;1.42;0.82;;;16.20;87.50;;;;;;5012483;28;20141;-75
2022/05/31 00:15:12;;;;;;;1.95;1.00;;;16.20;87.50;;;;;;5003637;28;20057;-73
2022/05/31 00:17:37;;;;;;;1.20;0.90;;;16.10;87.50;;;;;;5009037;28;20033;-74
2022/05/31 00:20:04;;;;;;;3.42;1.10;;;16.10;87.70;;;;;;5009734;28;20037;-74
2022/05/31 00:22:33;;;;;;;2.08;1.10;;;16.10;87.60;;;;;;5010647;28;20064;-74
2022/05/31 00:24:58;;;;;;;2.58;1.02;;;16.10;87.70;;;;;;5009471;28;20447;-74
2022/05/31 00:27:25;;;;;;;1.95;0.90;;;16.10;87.80;;;;;;5008816;28;20112;-72
2022/05/31 00:29:50;;;;;;;2.13;1.02;;;16.10;87.80;;;;;;4996775;28;20045;-75
2022/05/31 00:32:21;;;;;;;2.33;1.05;;;16.10;87.90;;;;;;5006310;28;20488;-74
2022/05/31 00:34:48;;;;;;;2.15;1.00;;;16.00;87.90;;;;;;4995978;28;20534;-74
2022/05/31 00:37:13;;;;;;;1.98;1.10;;;16.10;88.00;;;;;;5009519;28;20038;-74
2022/05/31 00:39:39;;;;;;;2.65;1.10;;;16.10;88.00;;;;;;5002714;28;20026;-73
2022/05/31 00:42:09;;;;;;;1.58;1.10;;;16.00;87.90;;;;;;5009589;28;20406;-74
2022/05/31 00:44:35;;;;;;;2.70;1.10;;;16.10;88.00;;;;;;5010065;28;20040;-73
2022/05/31 00:47:11;;;;;;;1.63;1.00;;;16.10;88.00;;;;;;5009475;28;20057;-74
2022/05/31 00:49:49;;;;;;;1.70;1.00;;;16.10;88.00;;;;;;5008919;28;20783;-74
2022/05/31 00:52:18;;;;;;;3.67;1.10;;;16.00;88.00;;;;;;4990853;28;20101;-74
2022/05/31 00:54:53;;;;;;;2.28;0.93;;;16.00;87.90;;;;;;5002312;28;20045;-73
2022/05/31 00:57:20;;;;;;;1.33;0.80;;;16.00;87.90;;;;;;4994341;28;20026;-74
2022/05/31 00:59:48;;;;;;;1.95;0.95;;;16.00;88.00;;;;;;4990299;28;20033;-73
2022/05/31 01:02:17;;;;;;;2.65;1.17;;;16.00;88.00;;;;;;5020579;28;20068;-73
2022/05/31 01:04:49;;;;;;;2.33;1.00;;;16.10;87.80;;;;;;5009458;28;20022;-74
2022/05/31 01:07:15;;;;;;;1.65;0.88;;;16.10;87.70;;;;;;4999888;28;20031;-75
2022/05/31 01:09:40;;;;;;;1.30;0.90;;;16.10;87.50;;;;;;4992757;28;20109;-74
2022/05/31 01:12:06;;;;;;;2.03;1.10;;;16.10;87.40;;;;;;5010788;28;20116;-74
2022/05/31 01:14:32;;;;;;;1.58;1.00;;;16.20;87.30;;;;;;5005586;28;20035;-73
2022/05/31 01:17:06;;;;;;;2.38;1.10;;;16.20;87.40;;;;;;5002410;28;20060;-77
2022/05/31 01:22:16;;;;;;;2.10;1.10;;;16.10;87.50;;;;;;5006219;28;20107;-74
2022/05/31 01:24:56;;;;;;;2.45;1.05;;;16.10;87.60;;;;;;5009066;28;20033;-73
2022/05/31 01:27:24;;;;;;;1.80;1.00;;;16.10;87.60;;;;;;5007482;28;20521;-73
2022/05/31 01:29:52;;;;;;;2.50;0.93;;;16.10;87.60;;;;;;5004505;28;20077;-75
2022/05/31 01:32:17;;;;;;;1.85;1.00;;;16.00;87.60;;;;;;4989317;28;20038;-76
2022/05/31 01:35:25;;;;;;;2.33;1.20;;;16.10;87.80;;;;;;5002440;28;20034;-75
2022/05/31 01:37:56;;;;;;;2.22;1.00;;;16.00;87.80;;;;;;4966590;28;20031;-75
2022/05/31 01:40:52;;;;;;;1.70;1.00;;;15.90;87.80;;;;;;4977669;28;20027;-74
2022/05/31 01:43:17;;;;;;;2.30;1.15;;;16.00;87.90;;;;;;4990997;28;20281;-74
2022/05/31 01:46:01;;;;;;;1.80;1.10;;;16.00;87.90;;;;;;5008525;28;20037;-75
2022/05/31 01:48:28;;;;;;;1.33;1.02;;;16.00;87.90;;;;;;4999177;28;20129;-75
2022/05/31 01:50:54;;;;;;;1.45;0.85;;;16.00;87.90;;;;;;5001435;28;20069;-74
2022/05/31 01:53:20;;;;;;;1.88;1.00;;;16.00;87.90;;;;;;4989538;28;20093;-74
2022/05/31 01:55:48;;;;;;;2.00;1.10;;;16.00;88.00;;;;;;4994324;28;20681;-74
2022/05/31 01:58:19;;;;;;;1.10;1.00;;;16.00;87.90;;;;;;5003665;28;20030;-75
2022/05/31 02:00:46;;;;;;;3.13;1.05;;;16.00;88.00;;;;;;4994855;28;20025;-75
2022/05/31 02:03:15;;;;;;;1.58;0.93;;;16.00;88.00;;;;;;5013264;28;20026;-74
2022/05/31 02:05:54;;;;;;;1.95;1.00;;;16.00;88.00;;;;;;5010710;28;20018;-75
2022/05/31 02:08:23;;;;;;;1.70;0.90;;;16.00;88.10;;;;;;5014058;28;20497;-75
2022/05/31 02:10:49;;;;;;;1.50;0.93;;;16.00;88.00;;;;;;5009597;28;20040;-75
2022/05/31 02:13:16;;;;;;;1.80;1.00;;;16.00;87.80;;;;;;5012798;28;20029;-73
2022/05/31 02:15:42;;;;;;;2.35;1.27;;;16.10;87.80;;;;;;5000727;28;20050;-74
2022/05/31 02:18:09;;;;;;;1.23;0.90;;;16.10;87.60;;;;;;5015087;28;20139;-74
2022/05/31 02:20:34;;;;;;;2.13;1.10;;;16.10;87.50;;;;;;5013673;28;20041;-74
2022/05/31 02:23:00;;;;;;;1.88;1.00;;;16.10;87.40;;;;;;5012798;28;20026;-75
2022/05/31 02:25:25;;;;;;;2.13;1.10;;;16.10;87.30;;;;;;5010665;28;20085;-74
2022/05/31 02:27:51;;;;;;;2.33;1.13;;;16.10;87.20;;;;;;5014803;28;20033;-74
2022/05/31 02:30:17;;;;;;;2.17;1.00;;;16.10;87.30;;;;;;5005598;28;20026;-74
2022/05/31 02:32:43;;;;;;;2.50;1.00;;;16.10;87.40;;;;;;5010750;28;21011;-75
2022/05/31 02:35:10;;;;;;;1.70;1.00;;;16.10;87.70;;;;;;5011067;28;20230;-74
2022/05/31 02:37:37;;;;;;;1.20;0.98;;;16.00;87.50;;;;;;4994317;28;20379;-74
2022/05/31 02:40:04;;;;;;;2.17;1.10;;;16.10;87.60;;;;;;4996514;28;20438;-74
2022/05/31 02:42:29;;;;;;;1.05;0.77;;;16.00;87.70;;;;;;5020274;28;20590;-73
2022/05/31 02:44:55;;;;;;;2.65;1.15;;;16.00;87.80;;;;;;4996069;28;20062;-74
2022/05/31 02:47:21;;;;;;;2.10;1.10;;;16.00;87.70;;;;;;5003275;28;20058;-74
2022/05/31 02:49:47;;;;;;;2.53;0.98;;;16.00;87.80;;;;;;5007627;28;20025;-75
2022/05/31 02:52:13;;;;;;;1.27;0.90;;;16.00;87.90;;;;;;5011233;28;20042;-75
2022/05/31 02:54:39;;;;;;;2.08;1.10;;;16.00;87.90;;;;;;4996628;28;20030;-75
2022/05/31 02:57:05;;;;;;;2.05;1.10;;;15.90;87.90;;;;;;5005837;28;20380;-73
2022/05/31 02:59:31;;;;;;;1.58;0.90;;;16.00;88.00;;;;;;5013081;28;20061;-75
2022/05/31 03:01:57;;;;;;;1.67;1.00;;;15.90;87.90;;;;;;5016113;28;20082;-73
2022/05/31 03:04:23;;;;;;;1.42;1.02;;;16.00;88.00;;;;;;5014753;28;20022;-74
2022/05/31 03:06:48;;;;;;;1.92;1.15;;;15.90;88.00;;;;;;5002740;28;20045;-74
2022/05/31 03:09:15;;;;;;;2.30;1.30;;;15.90;88.00;;;;;;4996074;28;20077;-74
2022/05/31 03:11:46;;;;;;;2.35;1.10;;;16.00;88.00;;;;;;5018402;28;20034;-74
2022/05/31 03:14:26;;;;;;;2.03;0.98;;;15.90;87.90;;;;;;5008166;28;20054;-73
2022/05/31 03:17:17;;;;;;;2.33;1.13;;;15.90;88.50;;;;;;5005252;28;20442;-74
2022/05/31 03:20:18;;;;;;;1.60;1.10;;;16.00;88.00;;;;;;4992228;28;20244;-73
2022/05/31 03:23:15;;;;;;;2.08;1.20;;;15.90;88.00;;;;;;4992654;28;20046;-75
2022/05/31 03:25:41;;;;;;;2.03;1.10;;;16.00;88.00;;;;;;4991879;28;20018;-75
2022/05/31 03:28:09;;;;;;;2.65;1.30;;;16.00;87.80;;;;;;5010059;28;20105;-77
2022/05/31 03:30:36;;;;;;;2.13;1.10;;;16.00;87.70;;;;;;4999958;28;20022;-75
2022/05/31 03:33:03;;;;;;;1.80;1.23;;;16.00;87.60;;;;;;5009606;28;20018;-73
2022/05/31 03:35:29;;;;;;;1.52;1.10;;;16.10;87.50;;;;;;5010130;28;20045;-76
2022/05/31 03:37:55;;;;;;;1.92;1.10;;;16.10;87.40;;;;;;5008780;28;20036;-74
2022/05/31 03:43:05;;;;;;;1.70;1.00;;;16.00;87.40;;;;;;5000945;28;20253;-73
2022/05/31 03:45:39;;;;;;;1.20;0.88;;;16.00;87.50;;;;;;5021755;28;20033;-73
2022/05/31 03:48:05;;;;;;;1.33;1.00;;;16.00;87.60;;;;;;4997149;28;20038;-74
2022/05/31 03:50:32;;;;;;;1.92;1.05;;;16.00;87.60;;;;;;5005691;28;20073;-75
2022/05/31 03:52:57;;;;;;;1.75;1.10;;;15.90;87.60;;;;;;5006230;28;20034;-75
2022/05/31 03:55:23;;;;;;;1.45;0.95;;;16.00;87.70;;;;;;5006710;28;20132;-75
2022/05/31 03:57:50;;;;;;;2.97;1.27;;;16.00;87.80;;;;;;4996100;28;20022;-75
2022/05/31 04:00:16;;;;;;;2.13;1.27;;;15.90;87.70;;;;;;5001853;28;20502;-74
2022/05/31 04:02:42;;;;;;;2.10;1.20;;;16.00;87.80;;;;;;5003987;28;20030;-75
2022/05/31 04:05:07;;;;;;;2.67;1.13;;;15.90;87.80;;;;;;5007050;28;20037;-75
2022/05/31 04:07:34;;;;;;;2.10;1.25;;;16.00;87.90;;;;;;4992038;28;20094;-75
2022/05/31 04:10:06;;;;;;;2.55;1.20;;;15.90;87.80;;;;;;4989976;28;20033;-74
2022/05/31 04:12:36;;;;;;;2.83;1.30;;;15.90;87.70;;;;;;5003934;28;20503;-75
2022/05/31 04:15:02;;;;;;;2.35;1.30;;;16.00;87.80;;;;;;5002699;28;20033;-74
2022/05/31 04:17:28;;;;;;;1.63;1.10;;;15.90;87.80;;;;;;5009057;28;20046;-73
2022/05/31 04:19:53;;;;;;;2.42;1.35;;;16.00;87.90;;;;;;5006965;28;20415;-74
2022/05/31 04:22:19;;;;;;;2.25;1.30;;;16.00;87.80;;;;;;5006420;28;20037;-74
2022/05/31 04:24:44;;;;;;;2.03;1.20;;;16.00;87.80;;;;;;5020745;28;20065;-75
2022/05/31 04:27:17;;;;;;;2.70;1.30;;;15.90;87.70;;;;;;5009824;28;20026;-75
2022/05/31 04:29:42;;;;;;;2.33;1.50;;;16.00;87.90;;;;;;5008981;28;20048;-75
2022/05/31 04:32:08;;;;;;;2.08;1.30;;;15.90;87.80;;;;;;5006684;28;20057;-75
2022/05/31 04:34:34;;;;;;;1.40;1.10;;;15.90;87.80;;;;;;4990509;28;20085;-73
2022/05/31 04:37:00;;;;;;;1.67;1.05;;;16.00;87.60;;;;;;4999736;28;20026;-74
2022/05/31 04:39:26;;;;;;;2.00;1.40;;;16.00;87.50;;;;;;5010585;28;20080;-74
2022/05/31 04:41:51;;;;;;;2.22;1.33;;;16.00;87.40;;;;;;5010580;28;20030;-74
2022/05/31 04:44:18;;;;;;;1.73;1.20;;;16.10;87.30;;;;;;5011400;28;20030;-73
2022/05/31 04:46:44;;;;;;;1.75;1.10;;;16.20;87.20;;;;;;5010221;28;20570;-74
2022/05/31 04:49:10;;;;;;;2.47;1.20;;;16.00;87.20;;;;;;5002010;28;20026;-72
2022/05/31 04:51:35;;;;;;;1.77;1.20;;;16.00;87.20;;;;;;5005769;28;20022;-74
2022/05/31 04:54:03;;;;;;;1.48;1.00;;;16.00;87.30;;;;;;5000231;28;20034;-82
2022/05/31 04:56:28;;;;;;;2.13;1.20;;;16.00;87.30;;;;;;4992163;28;20058;-74
2022/05/31 04:58:54;;;;;;;2.13;1.35;;;16.00;87.40;;;;;;4990736;28;20026;-76
2022/05/31 05:01:21;;;;;;;2.45;1.35;;;16.00;87.40;;;;;;5023804;28;20379;-75
2022/05/31 05:03:47;;;;;;;2.05;1.30;;;16.00;87.40;;;;;;4989999;28;20515;-74
2022/05/31 05:06:14;;;;;;;2.60;1.40;;;16.00;87.50;;;;;;5001688;28;20228;-74
2022/05/31 05:08:41;;;;;;;2.15;1.40;;;16.00;87.50;;;;;;4996384;28;20022;-74
2022/05/31 05:11:09;;;;;;;1.77;1.30;;;16.00;87.50;;;;;;5000474;28;20017;-75
2022/05/31 05:13:35;;;;;;;2.67;1.20;;;16.00;87.50;;;;;;4998342;28;20058;-74
2022/05/31 05:16:01;;;;;;;2.05;1.30;;;16.00;87.50;;;;;;5002480;28;20049;-75
2022/05/31 05:18:29;;;;;;;2.25;1.40;;;16.00;87.50;;;;;;5003186;28;20061;-74
2022/05/31 05:20:55;;;;;;;2.42;1.20;;;16.00;87.60;;;;;;4993684;28;20028;-73
2022/05/31 05:23:20;;;;;;;2.08;1.40;;;16.00;87.50;;;;;;5003131;28;20030;-74
2022/05/31 05:25:51;;;;;;;1.80;1.30;;;16.00;87.60;;;;;;5001172;28;20022;-76
2022/05/31 05:31:02;;;;;;;2.63;1.50;;;15.90;87.50;;;;;;4992462;28;20048;-73
2022/05/31 05:33:28;;;;;;;2.13;1.40;;;15.90;87.50;;;;;;4988891;28;20100;-75
2022/05/31 05:35:54;;;;;;;2.72;1.40;;;15.90;87.50;;;;;;4987871;28;20037;-74
2022/05/31 05:38:19;;;;;;;2.20;1.40;;;16.00;87.60;;;;;;4988183;28;20026;-75
2022/05/31 05:40:45;;;;;;;2.22;1.20;;;16.00;87.40;;;;;;4987179;28;20022;-75
2022/05/31 05:43:11;;;;;;;1.70;1.13;;;16.00;87.40;;;;;;4987589;28;20022;-75
2022/05/31 05:45:37;;;;;;;1.85;1.23;;;16.00;87.20;;;;;;4987144;28;20053;-74
2022/05/31 05:48:04;;;;;;;1.67;1.20;;;16.00;87.10;;;;;;4987844;28;20758;-75
2022/05/31 05:50:30;;;;;;;2.38;1.30;;;16.10;86.90;;;;;;4986699;28;20411;-74
2022/05/31 05:53:05;;;;;;;2.83;1.27;;;16.10;86.70;;;;;;4987862;28;20267;-74
2022/05/31 05:55:31;;;;;;;1.90;1.40;;;16.10;86.50;;;;;;4988354;28;20033;-74
2022/05/31 05:57:57;;;;;;;2.78;1.30;;;16.10;86.50;;;;;;4987579;28;20019;-72
2022/05/31 06:00:22;;;;;;;1.90;1.30;;;16.10;86.90;;;;;;4987182;28;20077;-75
2022/05/31 06:03:02;;;;;;;1.85;1.35;;;16.10;86.90;;;;;;5004070;28;20487;-73
2022/05/31 06:05:29;;;;;;;2.45;1.40;;;16.10;86.90;;;;;;5007463;28;20025;-74
2022/05/31 06:08:15;;;;;;;3.15;1.40;;;16.10;87.00;;;;;;5006083;28;20026;-74
2022/05/31 06:11:04;;;;;;;2.88;1.40;;;16.00;86.90;;;;;;4989342;28;20690;-75
2022/05/31 06:13:35;;;;;;;1.77;1.27;;;16.00;87.10;;;;;;4998912;28;20050;-76
2022/05/31 06:16:02;;;;;;;2.97;1.40;;;16.00;87.10;;;;;;4994034;28;20033;-75
2022/05/31 06:18:36;;;;;;;2.67;1.20;;;16.00;87.20;;;;;;4996390;28;20033;-75
2022/05/31 06:21:05;;;;;;;2.63;1.55;;;16.00;87.30;;;;;;4998345;28;20027;-76
2022/05/31 06:23:32;;;;;;;1.55;1.30;;;16.00;87.40;;;;;;4991043;28;20033;-75
2022/05/31 06:25:58;;;;;;;2.47;1.55;;;16.00;87.30;;;;;;5000738;28;20041;-75
2022/05/31 06:28:24;;;;;;;1.92;1.40;;;16.10;87.40;;;;;;4986914;28;20108;-76
2022/05/31 06:30:49;;;;;;;2.95;1.55;;;16.00;87.30;;;;;;5003411;28;20030;-75
2022/05/31 06:33:15;;;;;;;2.92;1.40;;;16.00;87.30;;;;;;5007860;28;20137;-74
2022/05/31 06:35:40;;;;;;;2.25;1.50;;;16.10;87.30;;;;;;4994208;28;20031;-75
2022/05/31 06:38:06;;;;;;;2.38;1.52;;;16.10;87.30;;;;;;4988918;28;20018;-74
2022/05/31 06:40:32;;;;;;;2.33;1.60;;;16.10;87.30;;;;;;4988492;28;20054;-75
2022/05/31 06:42:58;;;;;;;2.53;1.50;;;16.10;87.10;;;;;;4988142;28;20081;-74
2022/05/31 06:45:24;;;;;;;3.33;1.50;;;16.10;87.10;;;;;;4989011;28;20022;-75
2022/05/31 06:47:49;;;;;;;2.42;1.35;;;16.10;86.90;;;;;;4988142;28;20490;-74
2022/05/31 06:50:15;;;;;;;2.33;1.40;;;16.10;86.70;;;;;;5001037;28;20034;-76
2022/05/31 06:58:09;;;;;;;2.45;1.50;;;16.30;86.20;;;;;;4998415;28;20029;-75
2022/05/31 07:00:34;;;;;;;2.17;1.45;;;16.30;86.00;;;;;;5011691;28;20125;-74
2022/05/31 07:03:00;;;;;;;2.28;1.42;;;16.30;86.40;;;;;;5010558;28;20101;-75
2022/05/31 07:05:26;;;;;;;2.53;1.30;;;16.30;85.70;;;;;;5011022;28;20025;-75
2022/05/31 07:07:53;;;;;;;2.00;1.38;;;16.30;85.60;;;;;;5010404;28;20022;-75
2022/05/31 07:10:19;;;;;;;1.90;1.40;;;16.30;85.80;;;;;;5010748;28;20030;-74
2022/05/31 07:12:45;;;;;;;2.85;1.45;;;16.30;85.80;;;;;;5011363;28;20057;-74
2022/05/31 07:15:11;;;;;;;3.30;1.80;;;16.30;85.90;;;;;;5012008;28;20076;-74
2022/05/31 07:17:37;;;;;;;4.45;1.70;;;16.30;85.60;;;;;;5010037;28;20032;-75
2022/05/31 07:20:04;;;;;;;3.80;1.67;;;16.30;85.50;;;;;;5009974;28;20033;-74
2022/05/31 07:22:30;;;;;;;3.47;1.92;;;16.30;86.00;;;;;;5010171;28;20021;-75
2022/05/31 07:24:56;;;;;;;4.68;1.60;;;16.30;85.70;;;;;;5011148;28;20384;-75
2022/05/31 07:27:21;;;;;;;3.80;1.40;;;16.30;85.70;;;;;;5011137;28;20483;-75
2022/05/31 07:29:47;;;;;;;3.45;1.80;;;16.30;85.50;;;;;;5011661;28;20394;-77
2022/05/31 07:32:12;;;;;;;2.33;1.50;;;16.30;85.40;;;;;;5011042;28;20034;-74
2022/05/31 07:34:38;;;;;;;4.05;1.63;;;16.30;85.50;;;;;;5010790;28;20030;-75
2022/05/31 07:37:04;;;;;;;2.85;1.63;;;16.30;85.60;;;;;;5025764;28;20037;-75
2022/05/31 07:39:29;;;;;;;2.90;1.60;;;16.30;85.50;;;;;;5026101;28;20058;-74
2022/05/31 07:41:56;;;;;;;3.95;1.90;;;16.30;85.60;;;;;;5009249;28;20030;-73
2022/05/31 07:44:25;;;;;;;3.58;2.05;;;16.30;85.50;;;;;;5026769;28;20018;-74
2022/05/31 07:46:50;;;;;;;4.03;2.10;;;16.40;85.40;;;;;;5008994;28;20021;-76
2022/05/31 07:49:16;;;;;;;2.67;1.60;;;16.40;85.50;;;;;;5009492;28;20026;-75
2022/05/31 07:51:41;;;;;;;3.03;1.80;;;16.40;85.20;;;;;;5010631;28;20038;-75
2022/05/31 07:54:07;;;;;;;4.18;2.28;;;16.40;85.30;;;;;;5009813;28;20073;-75
2022/05/31 07:56:33;;;;;;;4.32;2.10;;;16.40;85.40;;;;;;5009497;28;20083;-74
2022/05/31 07:58:58;;;;;;;3.72;1.95;;;16.50;85.20;;;;;;5010191;28;20124;-75
2022/05/31 08:01:25;;;;;;;3.72;2.08;;;16.50;85.00;;;;;;5025818;28;20057;-74
2022/05/31 08:03:52;;;;;;;3.03;2.00;;;16.50;84.90;;;;;;5009915;28;20045;-75
2022/05/31 08:06:21;;;;;;;3.13;1.92;;;16.60;84.70;;;;;;5009423;28;20057;-74
2022/05/31 08:08:47;;;;;;;3.85;2.25;;;16.60;84.40;;;;;;5008988;28;20034;-72
2022/05/31 08:11:24;;;;;;;3.10;2.00;;;16.60;84.40;;;;;;5009791;28;20494;-74
2022/05/31 08:13:49;;;;;;;3.78;2.15;;;16.60;84.20;;;;;;5008863;28;20398;-74
2022/05/31 08:16:17;;;;;;;3.13;1.80;;;16.70;84.20;;;;;;5009067;28;20042;-74
2022/05/31 08:18:43;;;;;;;3.00;1.85;;;16.60;84.20;;;;;;5010428;28;20038;-74
2022/05/31 08:21:15;;;;;;;3.35;1.90;;;16.70;84.30;;;;;;5010848;28;20037;-74
2022/05/31 08:23:41;;;;;;;3.40;1.75;;;16.70;84.30;;;;;;5010324;28;20406;-74
2022/05/31 08:26:07;;;;;;;3.63;2.05;;;16.60;84.30;;;;;;5009912;28;20033;-76
2022/05/31 08:28:33;;;;;;;2.83;1.63;;;16.60;84.30;;;;;;5007668;28;20121;-74
2022/05/31 08:31:10;;;;;;;3.25;1.90;;;16.60;84.30;;;;;;5010094;28;20132;-76
2022/05/31 08:33:36;;;;;;;3.25;1.98;;;16.60;84.40;;;;;;5009756;28;20055;-75
2022/05/31 08:36:02;;;;;;;3.10;1.80;;;16.60;84.30;;;;;;5008178;28;20026;-75
2022/05/31 08:38:28;;;;;;;3.90;1.80;;;16.60;84.20;;;;;;5008714;28;20053;-75
2022/05/31 08:40:59;;;;;;;4.00;2.05;;;16.60;84.20;;;;;;5007958;28;20030;-76
2022/05/31 08:43:44;;;;;;;3.70;2.30;;;16.60;84.40;;;;;;5008033;28;20022;-75
2022/05/31 08:46:15;;;;;;;4.50;1.90;;;16.60;84.60;;;;;;5008286;28;20026;-74
2022/05/31 08:48:57;;;;;;;3.10;1.88;;;16.60;84.80;;;;;;5008126;28;20026;-75
2022/05/31 08:51:53;;;;;;;3.85;2.15;;;16.50;85.00;;;;;;4990011;28;20038;-75
2022/05/31 08:57:45;;;;;;;2.50;1.63;;;16.40;85.20;;;;;;4989537;28;20033;-73
2022/05/31 09:00:17;;;;;;;3.10;1.73;;;16.40;85.30;;;;;;4998162;28;20502;-74
2022/05/31 09:03:21;;;;;;;3.38;1.83;;;16.40;85.50;;;;;;5008144;28;20022;-76
2022/05/31 09:06:06;;;;;;;3.05;1.85;;;16.40;85.40;;;;;;5008127;28;20510;-75
2022/05/31 09:09:03;;;;;;;2.78;1.77;;;16.40;85.30;;;;;;5005587;28;20052;-75
2022/05/31 09:11:55;;;;;;;3.72;1.70;;;16.40;85.20;;;;;;5007342;28;20029;-75
2022/05/31 09:14:46;;;;;;;3.35;2.00;;;16.40;85.20;;;;;;5007820;28;20104;-76
2022/05/31 09:17:26;;;;;;;3.00;1.67;;;16.40;85.20;;;;;;5004548;28;20038;-76
2022/05/31 09:20:01;;;;;;;3.17;1.90;;;16.40;85.10;;;;;;4997442;28;20050;-75
2022/05/31 09:22:27;;;;;;;3.15;1.90;;;16.40;85.20;;;;;;5007286;28;20026;-76
2022/05/31 09:24:53;;;;;;;2.75;1.70;;;16.40;85.40;;;;;;4999094;28;20046;-75
2022/05/31 09:27:41;;;;;;;3.63;1.80;;;16.40;85.60;;;;;;5001939;28;20390;-76
2022/05/31 09:30:12;;;;;;;3.00;1.67;;;16.30;85.80;;;;;;5005627;28;20581;-74
2022/05/31 09:32:50;;;;;;;2.58;1.55;;;16.30;85.80;;;;;;4995431;28;20034;-74
2022/05/31 09:35:18;;;;;;;3.75;1.73;;;16.30;85.90;;;;;;5010092;28;20087;-75
2022/05/31 09:38:15;;;;;;;3.03;1.65;;;16.30;86.00;;;;;;4989018;28;20041;-75
2022/05/31 09:41:06;;;;;;;2.40;1.70;;;16.30;86.10;;;;;;4988357;28;20031;-75
2022/05/31 09:44:06;;;;;;;2.90;1.58;;;16.30;86.20;;;;;;4990171;28;20025;-74
2022/05/31 09:46:54;;;;;;;2.97;1.90;;;16.30;86.20;;;;;;4995300;28;20065;-75
2022/05/31 09:49:28;;;;;;;4.43;1.80;;;16.30;86.20;;;;;;4990100;28;20097;-74
2022/05/31 09:51:53;;;;;;;2.78;1.60;;;16.30;86.20;;;;;;5004935;28;20044;-75
2022/05/31 09:57:22;;;;;;;2.88;1.65;;;16.30;86.30;;;;;;4990387;28;20034;-75
2022/05/31 09:59:58;;;;;;;2.50;1.50;;;16.30;86.20;;;;;;4989453;28;20084;-74
2022/05/31 10:02:32;;;;;;;3.22;1.67;;;16.30;86.20;;;;;;4990032;28;20537;-76
2022/05/31 10:05:20;;;;;;;2.45;1.70;;;16.30;86.20;;;;;;4988345;28;20034;-75
2022/05/31 10:07:46;;;;;;;2.67;1.60;;;16.30;86.20;;;;;;4988142;28;20026;-75
2022/05/31 10:10:15;;;;;;;2.90;1.63;;;16.30;86.30;;;;;;4990187;28;20029;-74
2022/05/31 10:12:54;;;;;;;3.20;1.58;;;16.30;86.20;;;;;;4989888;28;20122;-74
2022/05/31 10:15:44;;;;;;;3.25;1.60;;;16.30;86.20;;;;;;5004852;28;20026;-74
2022/05/31 10:18:11;;;;;;;;;;;16.30;86.00;;;;;;4989800;28;20029;-75
2022/05/31 10:20:51;;;;;;;2.97;1.60;;;16.30;86.40;;;;;;4989090;28;19914;-75
2022/05/31 10:23:20;;;;;;;2.35;1.50;;;16.30;85.80;;;;;;4992476;28;20053;-74
2022/05/31 10:25:58;;;;;;;3.13;1.60;;;16.30;85.80;;;;;;4992110;28;20073;-74
2022/05/31 10:28:40;;;;;;;2.97;1.55;;;16.30;85.70;;;;;;4993048;28;20528;-73
2022/05/31 10:31:13;;;;;;;2.58;1.70;;;16.30;85.80;;;;;;4993260;28;20050;-75
2022/05/31 10:33:40;;;;;;;2.20;1.60;;;16.30;85.90;;;;;;5008076;28;20034;-76
2022/05/31 10:36:16;;;;;;;3.03;1.50;;;16.30;86.10;;;;;;4992901;28;20114;-75
2022/05/31 10:38:45;;;;;;;2.00;1.50;;;16.30;86.20;;;;;;4992291;28;20495;-75
2022/05/31 10:41:28;;;;;;;3.03;1.58;;;16.30;86.40;;;;;;5007955;28;20030;-74
2022/05/31 10:44:33;;;;;;;3.33;1.63;;;16.30;86.40;;;;;;4991656;28;20066;-74
2022/05/31 10:47:08;;;;;;;2.75;1.60;;;16.20;86.40;;;;;;4991022;28;20027;-75
2022/05/31 10:49:35;;;;;;;2.50;1.50;;;16.20;86.50;;;;;;4991539;28;20030;-75
2022/05/31 10:52:08;;;;;;;2.70;1.65;;;16.20;86.60;;;;;;4992159;28;20022;-75
2022/05/31 10:55:06;;;;;;;2.03;1.45;;;16.20;86.60;;;;;;4992882;28;20695;-75
2022/05/31 10:57:41;;;;;;;4.03;1.80;;;16.20;86.70;;;;;;4992180;28;20026;-75
2022/05/31 11:00:24;;;;;;;2.40;1.48;;;16.20;86.80;;;;;;4992221;28;20030;-74
2022/05/31 11:03:16;;;;;;;2.20;1.50;;;16.20;86.80;;;;;;4992483;28;20058;-75
2022/05/31 11:06:06;;;;;;;3.15;1.70;;;16.20;86.80;;;;;;4992612;28;20033;-74
2022/05/31 11:12:05;;;;;;;2.63;1.65;;;16.20;86.90;;;;;;4992920;28;20037;-74
2022/05/31 11:15:14;;;;;;;2.25;1.60;;;16.20;86.90;;;;;;4992574;28;20752;-75
2022/05/31 11:17:52;;;;;;;3.47;1.80;;;16.20;86.90;;;;;;4990081;28;20125;-77
2022/05/31 11:20:24;;;;;;;2.45;1.58;;;16.20;86.90;;;;;;4992488;28;20023;-75
2022/05/31 11:23:25;;;;;;;2.28;1.50;;;16.20;86.80;;;;;;4992714;28;20591;-75
2022/05/31 11:26:24;;;;;;;2.60;1.40;;;16.20;86.70;;;;;;4991523;28;20030;-76
2022/05/31 11:29:25;;;;;;;2.38;1.50;;;16.30;86.50;;;;;;4992213;28;20026;-73
2022/05/31 11:32:11;;;;;;;3.58;1.92;;;16.40;86.40;;;;;;4991953;28;20057;-74
2022/05/31 11:34:44;;;;;;;2.47;1.60;;;16.30;86.20;;;;;;4991753;28;20034;-75
2022/05/31 11:37:24;;;;;;;2.55;1.50;;;16.30;86.20;;;;;;4992222;28;20030;-76
2022/05/31 11:40:07;;;;;;;2.28;1.50;;;16.30;86.20;;;;;;5007048;28;20575;-75
2022/05/31 11:42:54;;;;;;;3.03;1.65;;;16.30;86.30;;;;;;4991756;28;20026;-75
2022/05/31 11:45:25;;;;;;;2.75;1.70;;;16.30;86.40;;;;;;5007367;28;20030;-75
2022/05/31 11:48:20;;;;;;;2.65;1.58;;;16.20;86.40;;;;;;4992150;28;20018;-74
2022/05/31 11:51:11;;;;;;;3.00;1.52;;;16.20;86.50;;;;;;4990975;28;20026;-75
2022/05/31 11:53:49;;;;;;;2.55;1.80;;;16.20;86.60;;;;;;4992591;28;20026;-75
2022/05/31 11:56:31;;;;;;;2.50;1.70;;;16.20;86.60;;;;;;4992050;28;20045;-74
2022/05/31 11:59:13;;;;;;;2.78;1.63;;;16.20;86.70;;;;;;4991543;28;20034;-74
2022/05/31 12:01:49;;;;;;;3.30;1.73;;;16.20;86.90;;;;;;4991797;28;20041;-74
2022/05/31 12:04:49;;;;;;;3.72;1.70;;;16.20;86.90;;;;;;4991669;28;20031;-74
2022/05/31 12:07:37;;;;;;;2.63;1.60;;;16.10;86.90;;;;;;4985606;28;20418;-78
2022/05/31 12:10:16;;;;;;;2.20;1.45;;;16.10;86.90;;;;;;4992109;28;20100;-75
2022/05/31 12:12:44;;;;;;;2.80;1.65;;;16.10;87.00;;;;;;4991692;28;20034;-74
2022/05/31 12:15:22;;;;;;;1.65;1.35;;;16.10;87.00;;;;;;4991688;28;20049;-74
2022/05/31 12:17:54;;;;;;;2.42;1.50;;;16.10;87.10;;;;;;4991382;28;20034;-76
2022/05/31 12:20:30;;;;;;;2.75;1.42;;;16.10;87.10;;;;;;4991765;28;20571;-75
2022/05/31 12:23:03;;;;;;;2.28;1.50;;;16.10;87.20;;;;;;4991837;28;20053;-75
2022/05/31 12:25:39;;;;;;;2.22;1.40;;;16.10;87.20;;;;;;4991411;28;20022;-75
2022/05/31 12:28:18;;;;;;;3.35;1.77;;;16.10;87.20;;;;;;4989848;28;20030;-75
2022/05/31 12:31:02;;;;;;;2.40;1.48;;;16.10;87.10;;;;;;4991864;28;20439;-74
2022/05/31 12:33:40;;;;;;;2.35;1.40;;;16.20;87.00;;;;;;5006182;28;20025;-74
2022/05/31 12:36:10;;;;;;;2.28;1.30;;;16.20;86.80;;;;;;5002820;28;20022;-81
2022/05/31 12:39:21;;;;;;;2.72;1.48;;;16.20;86.70;;;;;;4993712;28;20051;-75
2022/05/31 12:41:50;;;;;;;3.08;1.42;;;16.20;86.30;;;;;;4988541;28;20438;-77
2022/05/31 12:44:31;;;;;;;2.45;1.40;;;16.30;86.20;;;;;;5006918;28;20037;-75
2022/05/31 12:47:15;;;;;;;;;;;16.30;86.20;;;;;;5005018;28;20513;-73
2022/05/31 12:49:57;;;;;;;2.90;1.50;;;16.30;86.10;;;;;;4997891;28;19921;-76
2022/05/31 12:55:20;;;;;;;3.30;2.03;;;16.20;86.10;;;;;;4989609;28;20034;-75
2022/05/31 13:00:38;;;;;;;2.28;1.45;;;16.20;86.30;;;;;;4997230;28;20088;-77
2022/05/31 13:03:25;;;;;;;2.47;1.50;;;16.20;86.30;;;;;;4990625;28;20034;-75
2022/05/31 13:06:23;;;;;;;2.50;1.50;;;16.20;86.40;;;;;;5000622;28;20026;-76
2022/05/31 13:20:09;;;;;;;2.50;1.40;;;16.20;86.70;;;;;;5007591;28;20132;-75
2022/05/31 13:22:40;;;;;;;1.98;1.40;;;16.20;86.70;;;;;;5006368;28;20026;-75
2022/05/31 13:25:22;;;;;;;3.50;1.73;;;16.20;86.70;;;;;;5007226;28;20026;-75
2022/05/31 13:27:57;;;;;;;2.58;1.60;;;16.20;86.70;;;;;;5006774;28;20038;-75
2022/05/31 13:30:27;;;;;;;2.40;1.55;;;16.20;86.80;;;;;;4998559;28;20026;-74
2022/05/31 13:32:52;;;;;;;3.25;1.63;;;16.20;86.70;;;;;;4997992;28;20029;-76
2022/05/31 13:35:24;;;;;;;3.03;1.60;;;16.20;86.60;;;;;;5000691;28;20026;-75
2022/05/31 13:38:04;;;;;;;2.75;1.50;;;16.20;86.60;;;;;;4995443;28;20088;-76
2022/05/31 13:40:35;;;;;;;3.38;1.50;;;16.20;86.50;;;;;;4987498;28;20038;-73
2022/05/31 13:43:06;;;;;;;3.72;1.60;;;16.30;86.50;;;;;;4994296;28;20067;-74
2022/05/31 13:45:33;;;;;;;3.28;1.70;;;16.30;86.30;;;;;;5005439;28;20034;-74
2022/05/31 13:48:08;;;;;;;3.25;1.70;;;16.30;86.00;;;;;;5006345;28;20018;-74
2022/05/31 13:50:40;;;;;;;3.70;1.70;;;16.30;85.70;;;;;;5005323;28;20030;-75
2022/05/31 13:53:11;;;;;;;8.80;2.30;;;16.30;85.60;;;;;;5006612;28;20429;-74